Time;durP1;ratioP1;P1;durP2;ratioP2;P2;SDS_P1;SDS_P2;PMS_P1;PMS_P2;Temp;Humidity;BMP_temperature;BMP_pressure;BME280_temperature;BME280_humidity;BME280_pressure;Samples;Min_cycle;Max_cycle;Signal;HPM_P1;HPM_P2
2022/06/12 00:00:35;;;;;;;15.48;3.97;;;;;;;;;;5074302;28;20065;-75
2022/06/12 00:03:01;;;;;;;14.65;3.97;;;;;;;;;;5073001;28;20048;-75
2022/06/12 00:05:30;;;;;;;14.98;4.35;;;;;;;;;;5088026;28;20055;-76
2022/06/12 00:07:56;;;;;;;15.27;4.15;;;;;;;;;;5074989;28;20410;-76
2022/06/12 00:10:22;;;;;;;11.77;3.72;;;;;;;;;;5070009;28;20044;-76
2022/06/12 00:12:48;;;;;;;14.45;4.32;;;;;;;;;;5072220;28;20383;-76
2022/06/12 00:15:16;;;;;;;14.40;3.85;;;;;;;;;;5082686;28;20072;-75
2022/06/12 00:17:43;;;;;;;10.85;3.70;;;;;;;;;;5086642;28;20042;-76
2022/06/12 00:20:11;;;;;;;17.88;4.70;;;;;;;;;;5064224;28;20138;-75
2022/06/12 00:22:37;;;;;;;15.65;4.47;;;;;;;;;;5065632;28;20040;-76
2022/06/12 00:25:09;;;;;;;14.48;4.10;;;;;;;;;;5090545;28;20117;-76
2022/06/12 00:27:35;;;;;;;16.52;4.40;;;;;;;;;;5089953;28;20130;-75
2022/06/12 00:30:01;;;;;;;14.43;4.28;;;;;;;;;;5091274;28;20101;-76
2022/06/12 00:32:29;;;;;;;16.20;4.30;;;;;;;;;;5069701;28;20490;-75
2022/06/12 00:34:56;;;;;;;14.65;4.38;;;;;;;;;;5089237;28;20087;-76
2022/06/12 00:37:22;;;;;;;13.27;3.80;;;;;;;;;;5070504;28;20052;-76
2022/06/12 00:39:52;;;;;;;14.43;4.35;;;;;;;;;;5086345;28;20043;-75
2022/06/12 00:42:27;;;;;;;13.40;4.20;;;;;;;;;;5090001;28;21635;-76
2022/06/12 00:44:55;;;;;;;15.13;4.15;;;;;;;;;;5068136;28;20392;-76
2022/06/12 00:47:21;;;;;;;15.77;4.97;;;;;;;;;;5070278;28;20065;-76
2022/06/12 00:49:52;;;;;;;16.42;4.90;;;;;;;;;;5071132;28;20063;-75
2022/06/12 00:52:21;;;;;;;17.00;5.43;;;;;;;;;;5088753;28;20040;-75
2022/06/12 00:54:50;;;;;;;18.85;5.28;;;;;;;;;;5069097;28;20040;-75
2022/06/12 00:57:20;;;;;;;15.77;5.05;;;;;;;;;;5090850;28;20040;-75
2022/06/12 00:59:49;;;;;;;15.18;4.68;;;;;;;;;;5075934;28;20045;-75
2022/06/12 01:02:17;;;;;;;16.05;4.47;;;;;;;;;;5066966;28;20139;-76
2022/06/12 01:07:30;;;;;;;14.10;4.38;;;;;;;;;;5088957;28;20055;-76
2022/06/12 01:09:59;;;;;;;20.20;5.18;;;;;;;;;;5087762;28;20036;-76
2022/06/12 01:12:27;;;;;;;16.92;4.75;;;;;;;;;;5088678;28;20059;-76
2022/06/12 01:14:58;;;;;;;18.50;5.20;;;;;;;;;;5083337;28;20189;-76
2022/06/12 01:17:26;;;;;;;18.65;5.15;;;;;;;;;;5067503;28;20093;-75
2022/06/12 01:20:00;;;;;;;17.30;5.47;;;;;;;;;;5084620;28;20036;-75
2022/06/12 01:22:34;;;;;;;20.70;5.28;;;;;;;;;;5089447;28;20496;-75
2022/06/12 01:25:16;;;;;;;16.27;4.93;;;;;;;;;;5088524;28;20039;-76
2022/06/12 01:27:42;;;;;;;20.55;5.25;;;;;;;;;;5071802;28;20165;-75
2022/06/12 01:30:27;;;;;;;21.77;5.68;;;;;;;;;;5082781;28;20502;-76
2022/06/12 01:33:16;;;;;;;17.02;5.03;;;;;;;;;;5088455;28;20044;-76
2022/06/12 01:35:50;;;;;;;18.40;5.47;;;;;;;;;;5090966;28;20044;-75
2022/06/12 01:38:15;;;;;;;;;;;;;;;;;;5068724;28;20143;-75
2022/06/12 01:40:48;;;;;;;16.55;4.80;;;;;;;;;;5090175;28;20287;-75
2022/06/12 01:43:20;;;;;;;18.40;5.35;;;;;;;;;;5069135;28;20048;-76
2022/06/12 01:45:55;;;;;;;17.20;5.35;;;;;;;;;;5081405;28;20040;-75
2022/06/12 01:48:30;;;;;;;19.05;5.57;;;;;;;;;;5089729;28;20048;-75
2022/06/12 01:51:12;;;;;;;24.25;5.85;;;;;;;;;;5064599;28;20075;-75
2022/06/12 01:53:38;;;;;;;18.83;5.50;;;;;;;;;;5072585;28;20051;-75
2022/06/12 01:56:07;;;;;;;20.88;5.82;;;;;;;;;;5087996;28;20040;-75
2022/06/12 01:59:05;;;;;;;21.30;5.50;;;;;;;;;;5069243;28;20044;-75
2022/06/12 02:01:52;;;;;;;19.33;5.18;;;;;;;;;;5013126;28;20101;-75
2022/06/12 02:04:31;;;;;;;23.38;5.63;;;;;;;;;;5068757;28;20062;-75
2022/06/12 02:07:02;;;;;;;17.88;5.30;;;;;;;;;;5072551;28;20040;-75
2022/06/12 02:09:38;;;;;;;18.75;5.10;;;;;;;;;;5074761;28;20099;-75
2022/06/12 02:15:00;;;;;;;16.90;5.53;;;;;;;;;;5082500;28;20094;-76
2022/06/12 02:17:32;;;;;;;23.40;6.45;;;;;;;;;;5070585;28;20509;-76
2022/06/12 02:19:59;;;;;;;20.45;5.88;;;;;;;;;;5065338;28;20048;-76
2022/06/12 02:22:26;;;;;;;19.02;5.47;;;;;;;;;;5073241;28;20052;-76
2022/06/12 02:24:56;;;;;;;17.75;5.05;;;;;;;;;;5069096;28;20092;-76
2022/06/12 02:27:29;;;;;;;19.30;5.97;;;;;;;;;;5068497;28;20066;-76
2022/06/12 02:29:55;;;;;;;;;;;;;;;;;;5071054;28;20133;-75
2022/06/12 02:32:34;;;;;;;22.13;5.50;;;;;;;;;;5064363;28;19927;-76
2022/06/12 02:35:04;;;;;;;14.73;5.35;;;;;;;;;;5071961;28;20059;-76
2022/06/12 02:37:38;;;;;;;18.42;5.28;;;;;;;;;;5061769;28;20364;-76
2022/06/12 02:40:07;;;;;;;19.75;5.82;;;;;;;;;;5084908;28;20044;-75
2022/06/12 02:42:39;;;;;;;18.20;5.78;;;;;;;;;;5075931;28;20048;-75
2022/06/12 02:45:08;;;;;;;20.00;5.23;;;;;;;;;;5084262;28;20113;-75
2022/06/12 02:47:35;;;;;;;22.30;5.90;;;;;;;;;;5070394;28;20044;-76
2022/06/12 02:50:02;;;;;;;22.55;6.40;;;;;;;;;;5091337;28;20399;-76
2022/06/12 02:52:56;;;;;;;21.08;5.65;;;;;;;;;;5066126;28;20051;-75
2022/06/12 02:55:30;;;;;;;23.30;5.70;;;;;;;;;;5070101;28;20100;-76
2022/06/12 02:57:56;;;;;;;21.38;6.15;;;;;;;;;;5068837;28;20127;-75
2022/06/12 03:00:31;;;;;;;20.30;5.78;;;;;;;;;;5063454;28;20058;-76
2022/06/12 03:03:06;;;;;;;22.70;6.25;;;;;;;;;;5069039;28;20454;-76
2022/06/12 03:05:34;;;;;;;20.77;5.85;;;;;;;;;;5086407;28;20161;-75
2022/06/12 03:08:06;;;;;;;18.13;6.10;;;;;;;;;;5091722;28;20047;-75
2022/06/12 03:10:38;;;;;;;19.33;5.75;;;;;;;;;;5083874;28;20090;-75
2022/06/12 03:13:05;;;;;;;22.80;6.20;;;;;;;;;;5088058;28;20044;-76
2022/06/12 03:15:40;;;;;;;24.83;6.07;;;;;;;;;;5066395;28;20332;-76
2022/06/12 03:18:08;;;;;;;18.60;5.55;;;;;;;;;;5081725;28;20499;-75
2022/06/12 03:20:39;;;;;;;23.38;6.28;;;;;;;;;;5066921;28;20043;-75
2022/06/12 03:23:40;;;;;;;19.17;5.55;;;;;;;;;;5084318;28;20051;-76
2022/06/12 03:26:09;;;;;;;19.08;5.55;;;;;;;;;;4994339;28;20038;-76
2022/06/12 03:28:35;;;;;;;17.38;5.75;;;;;;;;;;5049657;28;20497;-76
2022/06/12 03:31:09;;;;;;;19.67;5.90;;;;;;;;;;5064614;28;20059;-76
2022/06/12 03:33:55;;;;;;;19.08;5.78;;;;;;;;;;5071788;28;20653;-76
2022/06/12 03:36:36;;;;;;;18.90;5.85;;;;;;;;;;5072255;28;20641;-75
2022/06/12 03:39:15;;;;;;;19.33;5.47;;;;;;;;;;5082411;28;20048;-75
2022/06/12 03:41:44;;;;;;;21.23;5.57;;;;;;;;;;5072752;28;20067;-75
2022/06/12 03:44:14;;;;;;;19.30;5.78;;;;;;;;;;5071108;28;20167;-75
2022/06/12 03:46:46;;;;;;;17.08;6.10;;;;;;;;;;5061444;28;20480;-75
2022/06/12 03:49:29;;;;;;;21.98;6.00;;;;;;;;;;5070055;28;20450;-75
2022/06/12 03:52:14;;;;;;;18.67;5.95;;;;;;;;;;5070783;28;20507;-75
2022/06/12 03:54:52;;;;;;;21.20;5.83;;;;;;;;;;5068914;28;20052;-75
2022/06/12 04:00:16;;;;;;;20.75;5.93;;;;;;;;;;5067187;28;20483;-76
2022/06/12 04:02:44;;;;;;;24.42;6.55;;;;;;;;;;5067366;28;20098;-75
2022/06/12 04:05:18;;;;;;;24.25;6.80;;;;;;;;;;5089254;28;20531;-75
2022/06/12 04:07:52;;;;;;;18.52;5.20;;;;;;;;;;5082876;28;20123;-76
2022/06/12 04:10:20;;;;;;;18.65;5.80;;;;;;;;;;5089038;28;20048;-76
2022/06/12 04:12:47;;;;;;;18.95;5.75;;;;;;;;;;5075774;28;20093;-75
2022/06/12 04:15:32;;;;;;;21.42;5.95;;;;;;;;;;5064102;28;20079;-75
2022/06/12 04:17:59;;;;;;;17.60;5.38;;;;;;;;;;5071460;28;20608;-76
2022/06/12 04:20:30;;;;;;;20.05;5.93;;;;;;;;;;5084132;28;20047;-76
2022/06/12 04:23:02;;;;;;;20.95;5.93;;;;;;;;;;5081736;28;20100;-76
2022/06/12 04:25:31;;;;;;;22.25;5.55;;;;;;;;;;5084049;28;20058;-76
2022/06/12 04:27:57;;;;;;;21.40;6.07;;;;;;;;;;5090508;28;20077;-76
2022/06/12 04:30:26;;;;;;;22.67;6.03;;;;;;;;;;5063375;28;20056;-76
2022/06/12 04:33:11;;;;;;;19.08;5.50;;;;;;;;;;5069787;28;20060;-76
2022/06/12 04:35:45;;;;;;;17.02;5.25;;;;;;;;;;5088850;28;20379;-75
2022/06/12 04:38:11;;;;;;;20.15;6.10;;;;;;;;;;5087879;28;20533;-76
2022/06/12 04:40:37;;;;;;;17.33;5.72;;;;;;;;;;5076748;28;20040;-76
2022/06/12 04:43:03;;;;;;;18.88;5.03;;;;;;;;;;5073051;28;20512;-75
2022/06/12 04:45:29;;;;;;;20.38;5.85;;;;;;;;;;5066335;28;20051;-76
2022/06/12 04:47:55;;;;;;;21.55;5.70;;;;;;;;;;5085988;28;20491;-76
2022/06/12 04:50:21;;;;;;;20.70;5.15;;;;;;;;;;5071303;28;20040;-76
2022/06/12 04:52:50;;;;;;;22.42;5.25;;;;;;;;;;5072503;28;20051;-76
2022/06/12 04:55:16;;;;;;;18.05;5.68;;;;;;;;;;5085400;28;20446;-76
2022/06/12 04:57:42;;;;;;;21.25;5.70;;;;;;;;;;5071270;28;20040;-76
2022/06/12 05:00:09;;;;;;;18.70;5.72;;;;;;;;;;5064027;28;20058;-76
2022/06/12 05:02:35;;;;;;;18.38;5.45;;;;;;;;;;5069745;28;20044;-76
2022/06/12 05:05:01;;;;;;;15.70;5.13;;;;;;;;;;5071154;28;20032;-76
2022/06/12 05:07:30;;;;;;;18.58;4.97;;;;;;;;;;5089407;28;20062;-76
2022/06/12 05:09:56;;;;;;;16.92;5.07;;;;;;;;;;5083382;28;20036;-76
2022/06/12 05:12:22;;;;;;;16.88;5.05;;;;;;;;;;5088344;28;20100;-76
2022/06/12 05:14:48;;;;;;;18.92;5.72;;;;;;;;;;5069089;28;20146;-76
2022/06/12 05:17:15;;;;;;;19.40;5.32;;;;;;;;;;5091823;28;20044;-76
2022/06/12 05:19:43;;;;;;;18.10;4.97;;;;;;;;;;5070479;28;20101;-76
2022/06/12 05:22:10;;;;;;;17.95;5.63;;;;;;;;;;5070288;28;20517;-76
2022/06/12 05:24:36;;;;;;;13.88;5.13;;;;;;;;;;5060259;28;20040;-76
2022/06/12 05:27:04;;;;;;;15.32;4.72;;;;;;;;;;5067209;28;20043;-76
2022/06/12 05:29:32;;;;;;;16.23;5.65;;;;;;;;;;5068442;28;20482;-76
2022/06/12 05:31:58;;;;;;;15.57;5.15;;;;;;;;;;5067466;28;20044;-76
2022/06/12 05:34:25;;;;;;;16.02;5.30;;;;;;;;;;5069474;28;20490;-76
2022/06/12 05:36:51;;;;;;;14.18;4.47;;;;;;;;;;5089482;28;20072;-76
2022/06/12 05:39:18;;;;;;;14.25;4.57;;;;;;;;;;5066772;28;20048;-76
2022/06/12 05:41:45;;;;;;;14.18;4.80;;;;;;;;;;5090055;28;20124;-76
2022/06/12 05:44:12;;;;;;;14.55;4.78;;;;;;;;;;5081735;28;20615;-76
2022/06/12 05:46:38;;;;;;;14.57;5.07;;;;;;;;;;5066781;28;20079;-76
2022/06/12 05:49:04;;;;;;;14.48;4.63;;;;;;;;;;5083721;28;20044;-75
2022/06/12 05:51:31;;;;;;;12.18;4.18;;;;;;;;;;5088303;28;20047;-76
2022/06/12 05:53:57;;;;;;;10.43;3.55;;;;;;;;;;5072405;28;20048;-75
2022/06/12 05:56:24;;;;;;;9.45;3.83;;;;;;;;;;5065178;28;20087;-75
2022/06/12 05:58:50;;;;;;;8.88;3.58;;;;;;;;;;5080518;28;20127;-76
2022/06/12 06:01:17;;;;;;;10.85;3.67;;;;;;;;;;5072048;28;20044;-75
2022/06/12 06:03:43;;;;;;;10.00;3.78;;;;;;;;;;5063884;28;20436;-75
2022/06/12 06:06:10;;;;;;;9.77;3.67;;;;;;;;;;5072158;28;20039;-76
2022/06/12 06:08:38;;;;;;;8.40;3.50;;;;;;;;;;5089037;28;20075;-76
2022/06/12 06:11:04;;;;;;;13.05;3.80;;;;;;;;;;5070873;28;20070;-75
2022/06/12 06:13:30;;;;;;;9.82;3.38;;;;;;;;;;5065791;28;20491;-76
2022/06/12 06:15:56;;;;;;;9.93;3.70;;;;;;;;;;5084582;28;20042;-75
2022/06/12 06:18:22;;;;;;;8.27;3.55;;;;;;;;;;5069621;28;20051;-76
2022/06/12 06:20:48;;;;;;;9.45;3.72;;;;;;;;;;5065345;28;20047;-76
2022/06/12 06:23:17;;;;;;;10.35;3.80;;;;;;;;;;5075102;28;20055;-76
2022/06/12 06:25:44;;;;;;;10.50;3.50;;;;;;;;;;5065184;28;20113;-75
2022/06/12 06:28:11;;;;;;;8.93;3.60;;;;;;;;;;5070479;28;20040;-76
2022/06/12 06:30:37;;;;;;;7.30;3.10;;;;;;;;;;5082177;28;20564;-76
2022/06/12 06:33:03;;;;;;;10.13;3.22;;;;;;;;;;5068823;28;20749;-76
2022/06/12 06:35:29;;;;;;;9.15;3.28;;;;;;;;;;5084412;28;20040;-75
2022/06/12 06:37:55;;;;;;;9.50;3.22;;;;;;;;;;5067267;28;20036;-76
2022/06/12 06:40:23;;;;;;;8.63;3.17;;;;;;;;;;5069508;28;20600;-76
2022/06/12 06:42:49;;;;;;;7.97;2.97;;;;;;;;;;5070682;28;20127;-76
2022/06/12 06:48:04;;;;;;;9.75;3.47;;;;;;;;;;5068248;28;20051;-76
2022/06/12 06:50:31;;;;;;;9.38;3.10;;;;;;;;;;5068140;28;20040;-76
2022/06/12 06:52:57;;;;;;;6.72;3.30;;;;;;;;;;5087364;28;20473;-75
2022/06/12 06:55:23;;;;;;;8.32;2.80;;;;;;;;;;5076722;28;20056;-75
2022/06/12 06:57:49;;;;;;;6.70;3.13;;;;;;;;;;5067795;28;20048;-75
2022/06/12 07:00:18;;;;;;;5.45;2.60;;;;;;;;;;5077744;28;20047;-76
2022/06/12 07:02:44;;;;;;;7.72;3.17;;;;;;;;;;5068728;28;20399;-76
2022/06/12 07:05:10;;;;;;;5.85;3.10;;;;;;;;;;5068452;28;20093;-76
2022/06/12 07:07:37;;;;;;;7.50;3.40;;;;;;;;;;5079363;28;20045;-76
2022/06/12 07:10:04;;;;;;;10.45;3.33;;;;;;;;;;5073695;28;20059;-76
2022/06/12 07:12:30;;;;;;;8.60;3.10;;;;;;;;;;5069891;28;20089;-76
2022/06/12 07:14:56;;;;;;;7.80;3.20;;;;;;;;;;5065863;28;20492;-76
2022/06/12 07:17:22;;;;;;;7.22;2.95;;;;;;;;;;5069223;28;20044;-75
2022/06/12 07:19:48;;;;;;;8.25;3.00;;;;;;;;;;5069094;28;20106;-76
2022/06/12 07:22:14;;;;;;;8.35;2.88;;;;;;;;;;5067335;28;20040;-76
2022/06/12 07:24:40;;;;;;;6.93;3.10;;;;;;;;;;5069320;28;20139;-75
2022/06/12 07:27:07;;;;;;;8.32;3.30;;;;;;;;;;5073039;28;20043;-76
2022/06/12 07:29:33;;;;;;;7.35;3.35;;;;;;;;;;5084620;28;20052;-76
2022/06/12 07:31:59;;;;;;;8.77;3.00;;;;;;;;;;5090390;28;20135;-76
2022/06/12 07:34:26;;;;;;;9.30;3.22;;;;;;;;;;5072689;28;20070;-76
2022/06/12 07:36:52;;;;;;;6.18;2.83;;;;;;;;;;5089654;28;20086;-76
2022/06/12 07:39:25;;;;;;;6.97;3.20;;;;;;;;;;5091532;28;20086;-76
2022/06/12 07:41:52;;;;;;;8.10;3.30;;;;;;;;;;5066778;28;20055;-76
2022/06/12 07:44:22;;;;;;;11.05;4.15;;;;;;;;;;5074439;28;20047;-76
2022/06/12 07:46:50;;;;;;;11.70;4.95;;;;;;;;;;5068412;28;20059;-76
2022/06/12 07:49:16;;;;;;;8.27;3.50;;;;;;;;;;5063690;28;20056;-76
2022/06/12 07:51:42;;;;;;;7.40;2.90;;;;;;;;;;5068634;28;20226;-76
2022/06/12 07:54:09;;;;;;;7.32;3.05;;;;;;;;;;5090398;28;20072;-76
2022/06/12 07:56:35;;;;;;;5.65;3.20;;;;;;;;;;5071271;28;20052;-75
2022/06/12 07:59:01;;;;;;;6.53;3.17;;;;;;;;;;5091670;28;20036;-76
2022/06/12 08:01:28;;;;;;;8.35;3.15;;;;;;;;;;5068001;28;20044;-76
2022/06/12 08:03:54;;;;;;;6.75;2.72;;;;;;;;;;5088057;28;20039;-76
2022/06/12 08:06:21;;;;;;;6.78;3.20;;;;;;;;;;5072977;28;20044;-76
2022/06/12 08:08:47;;;;;;;7.15;3.42;;;;;;;;;;5091195;28;20048;-76
2022/06/12 08:11:14;;;;;;;6.30;3.00;;;;;;;;;;5071657;28;20142;-75
2022/06/12 08:13:43;;;;;;;9.20;3.28;;;;;;;;;;5071922;28;20052;-75
2022/06/12 08:16:16;;;;;;;8.30;3.53;;;;;;;;;;5065957;28;20043;-77
2022/06/12 08:18:42;;;;;;;12.82;3.40;;;;;;;;;;5065060;28;20050;-77
2022/06/12 08:21:10;;;;;;;8.00;3.50;;;;;;;;;;5090903;28;20044;-76
2022/06/12 08:23:41;;;;;;;8.45;2.97;;;;;;;;;;5093792;28;20036;-77
2022/06/12 08:26:10;;;;;;;10.38;3.72;;;;;;;;;;5071571;28;20130;-76
2022/06/12 08:28:41;;;;;;;10.13;3.67;;;;;;;;;;5090874;28;20036;-77
2022/06/12 08:31:10;;;;;;;10.85;3.38;;;;;;;;;;5074987;28;20109;-76
2022/06/12 08:33:37;;;;;;;8.15;3.33;;;;;;;;;;5089730;28;20408;-76
2022/06/12 08:36:04;;;;;;;8.93;3.58;;;;;;;;;;5088658;28;20541;-75
2022/06/12 08:38:30;;;;;;;8.10;3.30;;;;;;;;;;5080587;28;20048;-76
2022/06/12 08:41:15;;;;;;;9.18;3.80;;;;;;;;;;5093012;28;20047;-77
2022/06/12 08:44:07;;;;;;;8.75;3.45;;;;;;;;;;5091429;28;20048;-77
2022/06/12 08:46:54;;;;;;;10.00;3.60;;;;;;;;;;5075886;28;20044;-83
2022/06/12 08:49:36;;;;;;;10.90;3.88;;;;;;;;;;5050442;28;20116;-79
2022/06/12 08:52:13;;;;;;;9.23;3.38;;;;;;;;;;5093047;28;20063;-79
2022/06/12 08:54:50;;;;;;;9.13;3.90;;;;;;;;;;5085418;28;20069;-82
2022/06/12 08:57:23;;;;;;;9.90;4.07;;;;;;;;;;5070560;28;20119;-77
2022/06/12 08:59:56;;;;;;;11.05;3.85;;;;;;;;;;5079929;28;20047;-76
2022/06/12 09:02:22;;;;;;;;;;;;;;;;;;5076644;28;20434;-76
2022/06/12 09:04:48;;;;;;;7.63;3.42;;;;;;;;;;5095326;28;19924;-76
2022/06/12 09:07:23;;;;;;;9.35;3.65;;;;;;;;;;5092082;28;20036;-78
2022/06/12 09:09:55;;;;;;;8.93;3.75;;;;;;;;;;5058068;28;20099;-77
2022/06/12 09:12:24;;;;;;;11.60;3.90;;;;;;;;;;5086449;28;20116;-77
2022/06/12 09:14:53;;;;;;;7.47;3.40;;;;;;;;;;5087336;28;20085;-77
2022/06/12 09:17:19;;;;;;;11.35;3.65;;;;;;;;;;5081361;28;20055;-77
2022/06/12 09:20:03;;;;;;;7.93;3.40;;;;;;;;;;5088721;28;20040;-76
2022/06/12 09:22:55;;;;;;;9.27;3.67;;;;;;;;;;5072943;28;20056;-77
2022/06/12 09:25:27;;;;;;;8.35;3.28;;;;;;;;;;5084435;28;20048;-77
2022/06/12 09:28:01;;;;;;;9.40;3.75;;;;;;;;;;5083325;28;20492;-77
2022/06/12 09:30:51;;;;;;;7.93;3.67;;;;;;;;;;5085462;28;20559;-76
2022/06/12 09:33:31;;;;;;;10.30;3.78;;;;;;;;;;5069620;28;20036;-77
2022/06/12 09:36:02;;;;;;;10.02;3.70;;;;;;;;;;5084928;28;20151;-76
2022/06/12 09:38:35;;;;;;;10.05;4.13;;;;;;;;;;5065131;28;20044;-76
2022/06/12 09:41:04;;;;;;;9.88;3.60;;;;;;;;;;5071847;28;20079;-76
2022/06/12 09:43:33;;;;;;;7.38;3.38;;;;;;;;;;5069381;28;20083;-76
2022/06/12 09:46:17;;;;;;;8.65;3.90;;;;;;;;;;5086279;28;20145;-75
2022/06/12 09:49:01;;;;;;;10.38;3.83;;;;;;;;;;5074948;28;20442;-76
2022/06/12 09:51:43;;;;;;;10.52;4.00;;;;;;;;;;5068823;28;21021;-76
2022/06/12 09:54:12;;;;;;;11.05;4.05;;;;;;;;;;5094402;28;20102;-76
2022/06/12 09:56:48;;;;;;;11.07;4.00;;;;;;;;;;5065447;28;20044;-76
2022/06/12 09:59:17;;;;;;;9.60;3.80;;;;;;;;;;5087804;28;20043;-77
2022/06/12 10:01:45;;;;;;;9.55;4.00;;;;;;;;;;5066969;28;20063;-77
2022/06/12 10:04:16;;;;;;;9.98;4.22;;;;;;;;;;5070895;28;20071;-77
2022/06/12 10:07:05;;;;;;;9.77;3.65;;;;;;;;;;5069727;28;20105;-77
2022/06/12 10:09:35;;;;;;;11.65;4.70;;;;;;;;;;5084740;28;20070;-77
2022/06/12 10:12:04;;;;;;;9.43;4.13;;;;;;;;;;5088816;28;20047;-77
2022/06/12 10:14:40;;;;;;;15.52;3.95;;;;;;;;;;5068532;28;20044;-77
2022/06/12 10:17:11;;;;;;;12.82;4.70;;;;;;;;;;5063793;28;20048;-76
2022/06/12 10:19:57;;;;;;;11.02;4.10;;;;;;;;;;5077304;28;20055;-76
2022/06/12 10:22:43;;;;;;;9.95;4.05;;;;;;;;;;5068505;28;20043;-77
2022/06/12 10:25:16;;;;;;;11.50;4.15;;;;;;;;;;5086761;28;20090;-77
2022/06/12 10:27:51;;;;;;;12.35;4.40;;;;;;;;;;5072188;28;20040;-77
2022/06/12 10:30:29;;;;;;;9.85;4.10;;;;;;;;;;5063529;28;20244;-77
2022/06/12 10:32:57;;;;;;;8.10;3.92;;;;;;;;;;5084265;28;20403;-77
2022/06/12 10:35:24;;;;;;;9.98;3.90;;;;;;;;;;5079244;28;20048;-76
2022/06/12 10:37:50;;;;;;;7.93;4.22;;;;;;;;;;5059721;28;20063;-77
2022/06/12 10:40:54;;;;;;;10.95;4.10;;;;;;;;;;5093133;28;20044;-77
2022/06/12 10:43:24;;;;;;;9.75;3.65;;;;;;;;;;5086008;28;20048;-77
2022/06/12 10:45:58;;;;;;;6.90;3.63;;;;;;;;;;5089021;28;20032;-77
2022/06/12 10:48:26;;;;;;;8.52;3.47;;;;;;;;;;5084229;28;20063;-77
2022/06/12 10:50:55;;;;;;;8.27;3.95;;;;;;;;;;5066962;28;20102;-76
2022/06/12 10:53:23;;;;;;;8.27;4.00;;;;;;;;;;5080352;28;20328;-77
2022/06/12 10:55:52;;;;;;;7.68;3.80;;;;;;;;;;5085627;28;20089;-78
2022/06/12 10:58:18;;;;;;;8.65;3.75;;;;;;;;;;5087571;28;20569;-78
2022/06/12 11:00:46;;;;;;;9.45;3.95;;;;;;;;;;5068536;28;20128;-77
2022/06/12 11:03:25;;;;;;;8.43;3.88;;;;;;;;;;5091267;28;20465;-77
2022/06/12 11:06:11;;;;;;;9.32;3.78;;;;;;;;;;5089020;28;20044;-78
2022/06/12 11:08:58;;;;;;;9.10;3.85;;;;;;;;;;5074254;28;20044;-78
2022/06/12 11:11:27;;;;;;;8.05;3.47;;;;;;;;;;5073938;28;20051;-78
2022/06/12 11:14:08;;;;;;;11.60;4.03;;;;;;;;;;5075531;28;20055;-77
2022/06/12 11:16:34;;;;;;;8.60;3.72;;;;;;;;;;5067176;28;20175;-78
2022/06/12 11:19:21;;;;;;;8.40;4.07;;;;;;;;;;5074737;28;20036;-77
2022/06/12 11:21:47;;;;;;;8.80;4.00;;;;;;;;;;5076104;28;20048;-79
2022/06/12 11:24:20;;;;;;;7.00;3.80;;;;;;;;;;5084375;28;20048;-78
2022/06/12 11:26:50;;;;;;;7.28;3.72;;;;;;;;;;5067043;28;20143;-79
2022/06/12 11:29:31;;;;;;;7.85;3.90;;;;;;;;;;5074006;28;20074;-79
2022/06/12 11:32:06;;;;;;;7.68;4.13;;;;;;;;;;5094155;28;20044;-78
2022/06/12 11:34:42;;;;;;;10.60;3.90;;;;;;;;;;5069923;28;20565;-79
2022/06/12 11:37:23;;;;;;;10.32;4.15;;;;;;;;;;5090504;28;20046;-79
2022/06/12 11:40:08;;;;;;;9.73;3.83;;;;;;;;;;5070266;28;20101;-78
2022/06/12 11:42:41;;;;;;;11.50;3.92;;;;;;;;;;5092810;28;20521;-78
2022/06/12 11:45:12;;;;;;;7.35;4.18;;;;;;;;;;5094803;28;20040;-79
2022/06/12 11:47:57;;;;;;;10.45;4.38;;;;;;;;;;5066369;28;20060;-79
2022/06/12 11:50:28;;;;;;;9.05;4.50;;;;;;;;;;5085755;28;20415;-79
2022/06/12 11:53:14;;;;;;;8.75;3.97;;;;;;;;;;5093912;28;20126;-79
2022/06/12 11:55:59;;;;;;;8.27;4.00;;;;;;;;;;5087226;28;20046;-79
2022/06/12 11:58:24;;;;;;;9.27;3.95;;;;;;;;;;5089050;28;20123;-78
2022/06/12 12:01:10;;;;;;;8.57;3.63;;;;;;;;;;5065782;28;20123;-78
2022/06/12 12:03:51;;;;;;;10.57;4.22;;;;;;;;;;5062359;28;20044;-79
2022/06/12 12:06:36;;;;;;;10.73;4.03;;;;;;;;;;5086952;28;20044;-79
2022/06/12 12:09:02;;;;;;;10.35;4.03;;;;;;;;;;5071254;28;20048;-80
2022/06/12 12:11:49;;;;;;;13.70;4.20;;;;;;;;;;5088959;28;20130;-79
2022/06/12 12:14:23;;;;;;;9.90;3.60;;;;;;;;;;5071745;28;20091;-79
2022/06/12 12:16:52;;;;;;;9.30;3.53;;;;;;;;;;5089241;28;20058;-77
2022/06/12 12:19:32;;;;;;;8.18;3.80;;;;;;;;;;5070999;28;20143;-78
2022/06/12 12:22:00;;;;;;;7.47;3.72;;;;;;;;;;5070056;28;20040;-77
2022/06/12 12:24:29;;;;;;;10.32;4.15;;;;;;;;;;5073162;28;20051;-79
2022/06/12 12:26:57;;;;;;;10.15;3.63;;;;;;;;;;5071599;28;20036;-78
2022/06/12 12:29:28;;;;;;;13.48;4.15;;;;;;;;;;5089526;28;20522;-78
2022/06/12 12:31:54;;;;;;;12.27;4.60;;;;;;;;;;5092149;28;20048;-78
2022/06/12 12:34:22;;;;;;;9.68;4.00;;;;;;;;;;5071162;28;20046;-78
2022/06/12 12:42:21;;;;;;;10.70;3.67;;;;;;;;;;5072997;28;20072;-78
2022/06/12 12:44:47;;;;;;;9.32;3.80;;;;;;;;;;5086723;28;20044;-78
2022/06/12 12:47:24;;;;;;;12.48;3.60;;;;;;;;;;5073976;28;20040;-77
2022/06/12 12:50:01;;;;;;;6.47;3.35;;;;;;;;;;5078906;28;20093;-78
2022/06/12 12:52:27;;;;;;;14.45;4.45;;;;;;;;;;5087956;28;20051;-78
2022/06/12 12:54:55;;;;;;;10.20;4.07;;;;;;;;;;5092713;28;20036;-78
2022/06/12 12:57:33;;;;;;;9.77;4.03;;;;;;;;;;5089880;28;20048;-77
2022/06/12 12:59:59;;;;;;;8.07;4.13;;;;;;;;;;5089403;28;20044;-77
2022/06/12 13:02:31;;;;;;;9.32;4.00;;;;;;;;;;5093722;28;20045;-78
2022/06/12 13:04:59;;;;;;;7.78;3.90;;;;;;;;;;5071797;28;20071;-78
2022/06/12 13:07:44;;;;;;;11.00;4.20;;;;;;;;;;5087605;28;20055;-78
2022/06/12 13:10:10;;;;;;;12.13;4.00;;;;;;;;;;5091683;28;20047;-78
2022/06/12 13:15:58;;;;;;;10.43;4.20;;;;;;;;;;5079457;28;20113;-78
2022/06/12 13:18:27;;;;;;;6.47;3.60;;;;;;;;;;5089173;28;20135;-78
2022/06/12 13:21:01;;;;;;;11.80;3.70;;;;;;;;;;5089237;28;20042;-78
2022/06/12 13:23:27;;;;;;;9.25;4.00;;;;;;;;;;5089146;28;20054;-78
2022/06/12 13:25:54;;;;;;;8.90;4.45;;;;;;;;;;5089871;28;20120;-78
2022/06/12 13:28:22;;;;;;;8.57;3.60;;;;;;;;;;5071747;28;20052;-78
2022/06/12 13:30:48;;;;;;;10.65;4.20;;;;;;;;;;5083167;28;20060;-79
2022/06/12 13:33:14;;;;;;;7.35;3.72;;;;;;;;;;5070250;28;20143;-78
2022/06/12 13:35:57;;;;;;;10.65;4.05;;;;;;;;;;5072028;28;20123;-78
2022/06/12 13:38:34;;;;;;;11.18;3.63;;;;;;;;;;5087365;28;20052;-79
2022/06/12 13:41:00;;;;;;;8.85;4.22;;;;;;;;;;5072621;28;20048;-78
2022/06/12 13:43:29;;;;;;;6.88;3.65;;;;;;;;;;5091347;28;20040;-79
2022/06/12 13:46:02;;;;;;;11.05;3.95;;;;;;;;;;5089938;28;20052;-78
2022/06/12 13:48:30;;;;;;;9.57;4.25;;;;;;;;;;5068661;28;20433;-78
2022/06/12 13:51:06;;;;;;;11.68;4.00;;;;;;;;;;5080543;28;20044;-78
2022/06/12 13:53:39;;;;;;;9.00;4.10;;;;;;;;;;5086881;28;20036;-78
2022/06/12 13:56:11;;;;;;;10.02;4.13;;;;;;;;;;5088919;28;20090;-78
2022/06/12 13:58:42;;;;;;;8.30;3.63;;;;;;;;;;5060711;28;20044;-77
2022/06/12 14:01:20;;;;;;;11.88;6.60;;;;;;;;;;5067760;28;20556;-78
2022/06/12 14:04:04;;;;;;;18.15;12.77;;;;;;;;;;5074709;28;20040;-77
2022/06/12 14:06:40;;;;;;;11.00;4.50;;;;;;;;;;5070107;28;20532;-78
2022/06/12 14:09:21;;;;;;;6.95;4.15;;;;;;;;;;5069011;28;20067;-78
2022/06/12 14:11:48;;;;;;;10.57;3.88;;;;;;;;;;5075812;28;20040;-77
2022/06/12 14:14:37;;;;;;;7.82;3.90;;;;;;;;;;5092920;28;20048;-78
2022/06/12 14:17:05;;;;;;;7.82;3.60;;;;;;;;;;5075928;28;20063;-77
2022/06/12 14:19:32;;;;;;;7.60;3.50;;;;;;;;;;5097864;28;20051;-78
2022/06/12 14:22:13;;;;;;;9.98;3.65;;;;;;;;;;5090503;28;20050;-77
2022/06/12 14:24:43;;;;;;;8.05;3.72;;;;;;;;;;5089018;28;20036;-78
2022/06/12 14:27:24;;;;;;;7.28;2.90;;;;;;;;;;5091773;28;20047;-78
2022/06/12 14:29:53;;;;;;;6.68;3.20;;;;;;;;;;5084237;28;20052;-78
2022/06/12 14:32:24;;;;;;;7.47;3.10;;;;;;;;;;5089091;28;20052;-78
2022/06/12 14:35:14;;;;;;;5.10;2.70;;;;;;;;;;5089936;28;20040;-77
2022/06/12 14:37:42;;;;;;;7.50;3.95;;;;;;;;;;5080575;28;20041;-78
2022/06/12 14:40:31;;;;;;;6.45;2.75;;;;;;;;;;5088871;28;20513;-78
2022/06/12 14:43:00;;;;;;;5.38;2.92;;;;;;;;;;5089143;28;20044;-78
2022/06/12 14:45:31;;;;;;;6.57;3.58;;;;;;;;;;5089325;28;20090;-78
2022/06/12 14:47:57;;;;;;;5.22;3.15;;;;;;;;;;5068239;28;20042;-78
2022/06/12 14:50:23;;;;;;;5.82;2.90;;;;;;;;;;5087557;28;20063;-78
2022/06/12 14:52:55;;;;;;;4.43;3.08;;;;;;;;;;5086910;28;20048;-78
2022/06/12 14:55:24;;;;;;;4.35;2.45;;;;;;;;;;5087234;28;20051;-79
2022/06/12 14:57:50;;;;;;;5.90;2.63;;;;;;;;;;5086744;28;20089;-78
2022/06/12 15:00:21;;;;;;;6.38;3.38;;;;;;;;;;5069538;28;20433;-78
2022/06/12 15:02:47;;;;;;;5.68;2.80;;;;;;;;;;5087343;28;20376;-78
2022/06/12 15:05:21;;;;;;;5.88;2.58;;;;;;;;;;5087569;28;20047;-77
2022/06/12 15:07:47;;;;;;;7.63;3.42;;;;;;;;;;5085389;28;20032;-78
2022/06/12 15:10:14;;;;;;;6.50;3.03;;;;;;;;;;5082650;28;20055;-78
2022/06/12 15:12:40;;;;;;;3.95;2.83;;;;;;;;;;5085451;28;20520;-78
2022/06/12 15:15:15;;;;;;;5.50;2.97;;;;;;;;;;5086548;28;20056;-79
2022/06/12 15:17:41;;;;;;;6.93;2.55;;;;;;;;;;5081826;28;20119;-79
2022/06/12 15:20:09;;;;;;;5.65;2.90;;;;;;;;;;5087927;28;20446;-79